createdAt,value
2018-06-02T00:01:38.187Z,4.00
2018-06-02T00:04:04.831Z,4.20
2018-06-02T00:06:31.474Z,3.60
2018-06-02T00:08:58.090Z,4.10
2018-06-02T00:11:24.746Z,4.50
2018-06-02T00:13:51.384Z,4.10
2018-06-02T00:16:18.868Z,3.87
2018-06-02T00:18:45.516Z,3.80
2018-06-02T00:21:12.140Z,3.80
2018-06-02T00:23:38.790Z,3.60
2018-06-02T00:26:05.422Z,4.10
2018-06-02T00:28:32.086Z,4.17
2018-06-02T00:30:58.712Z,3.90
2018-06-02T00:33:25.329Z,3.80
2018-06-02T00:35:51.974Z,3.87
2018-06-02T00:38:18.623Z,4.10
2018-06-02T00:40:45.227Z,3.87
2018-06-02T00:43:11.892Z,4.00
2018-06-02T00:45:38.509Z,3.80
2018-06-02T00:48:05.155Z,3.93
2018-06-02T00:50:31.783Z,3.40
2018-06-02T00:52:58.426Z,3.80
2018-06-02T00:55:25.047Z,3.67
2018-06-02T00:57:51.694Z,3.90
2018-06-02T01:00:18.331Z,3.77
2018-06-02T01:02:44.958Z,3.50
2018-06-02T01:05:11.599Z,3.63
2018-06-02T01:07:38.244Z,4.10
2018-06-02T01:10:04.872Z,4.40
2018-06-02T01:12:31.494Z,4.43
2018-06-02T01:14:58.149Z,4.80
2018-06-02T01:17:24.771Z,4.47
2018-06-02T01:19:51.423Z,4.30
2018-06-02T01:22:18.058Z,4.30
2018-06-02T01:24:44.699Z,4.30
2018-06-02T01:27:11.369Z,4.00
2018-06-02T01:29:37.976Z,4.03
2018-06-02T01:32:04.619Z,4.17
2018-06-02T01:34:31.272Z,4.23
2018-06-02T01:36:57.894Z,3.50
2018-06-02T01:39:24.687Z,4.60
2018-06-02T01:41:51.315Z,3.63
2018-06-02T01:44:17.940Z,4.13
2018-06-02T01:46:44.586Z,3.73
2018-06-02T01:49:11.210Z,4.03
2018-06-02T01:51:37.830Z,4.30
2018-06-02T01:54:04.488Z,3.20
2018-06-02T01:56:31.101Z,4.40
2018-06-02T01:58:57.717Z,3.87
2018-06-02T02:01:24.363Z,4.70
2018-06-02T02:03:50.987Z,4.77
2018-06-02T02:06:17.638Z,4.50
2018-06-02T02:08:44.277Z,3.90
2018-06-02T02:11:10.929Z,4.20
2018-06-02T02:13:37.551Z,4.50
2018-06-02T02:16:04.185Z,4.20
2018-06-02T02:18:30.840Z,4.20
2018-06-02T02:20:57.477Z,4.60
2018-06-02T02:23:24.111Z,4.70
2018-06-02T02:25:50.739Z,4.80
2018-06-02T02:28:17.359Z,5.10
2018-06-02T02:30:43.968Z,4.73
2018-06-02T02:33:10.607Z,4.30
2018-06-02T02:35:37.242Z,4.60
2018-06-02T02:38:03.886Z,4.80
2018-06-02T02:40:31.323Z,4.60
2018-06-02T02:42:57.955Z,4.53
2018-06-02T02:45:24.647Z,4.70
2018-06-02T02:47:51.273Z,4.20
2018-06-02T02:50:17.913Z,5.10
2018-06-02T02:52:44.526Z,4.97
2018-06-02T02:55:11.140Z,4.80
2018-06-02T02:57:37.789Z,5.33
2018-06-02T03:00:04.431Z,4.73
2018-06-02T03:02:31.068Z,4.33
2018-06-02T03:04:57.785Z,5.07
2018-06-02T03:07:24.391Z,5.03
2018-06-02T03:09:51.050Z,4.83
2018-06-02T03:12:17.690Z,5.27
2018-06-02T03:14:44.340Z,5.23
2018-06-02T03:17:10.978Z,5.33
2018-06-02T03:19:37.604Z,5.37
2018-06-02T03:22:04.246Z,5.53
2018-06-02T03:24:30.854Z,5.13
2018-06-02T03:26:57.529Z,5.73
2018-06-02T03:29:24.188Z,5.90
2018-06-02T03:31:50.829Z,6.47
2018-06-02T03:34:17.464Z,6.07
2018-06-02T03:36:44.090Z,5.90
2018-06-02T03:39:10.738Z,5.97
2018-06-02T03:41:37.360Z,5.77
2018-06-02T03:44:03.985Z,5.70
2018-06-02T03:46:30.656Z,5.80
2018-06-02T03:48:57.278Z,5.50
2018-06-02T03:51:23.944Z,6.73
2018-06-02T03:53:50.569Z,6.70
2018-06-02T03:56:17.184Z,5.70
2018-06-02T03:58:43.819Z,5.97
2018-06-02T04:01:10.500Z,5.33
2018-06-02T04:03:37.131Z,6.20
2018-06-02T04:06:03.778Z,5.63
2018-06-02T04:08:30.414Z,5.83
2018-06-02T04:10:57.056Z,5.90
2018-06-02T04:13:23.679Z,5.80
2018-06-02T04:15:50.482Z,5.10
2018-06-02T04:18:17.072Z,5.40
2018-06-02T04:20:43.710Z,6.27
2018-06-02T04:23:10.336Z,5.90
2018-06-02T04:25:36.985Z,5.90
2018-06-02T04:28:03.608Z,5.60
2018-06-02T04:30:30.241Z,5.50
2018-06-02T04:32:56.888Z,6.50
2018-06-02T04:35:23.517Z,6.10
2018-06-02T04:37:50.149Z,6.10
2018-06-02T04:40:16.783Z,6.20
2018-06-02T04:42:43.443Z,6.53
2018-06-02T04:45:10.067Z,6.17
2018-06-02T04:47:36.734Z,5.30
2018-06-02T04:50:03.351Z,5.60
2018-06-02T04:52:29.982Z,4.47
2018-06-02T04:54:56.629Z,4.20
2018-06-02T04:57:23.265Z,5.10
2018-06-02T04:59:49.911Z,4.80
2018-06-02T05:02:16.547Z,5.20
2018-06-02T05:04:43.203Z,4.57
2018-06-02T05:07:09.833Z,4.57
2018-06-02T05:09:36.455Z,4.63
2018-06-02T05:12:03.088Z,4.50
2018-06-02T05:14:29.713Z,5.90
2018-06-02T05:16:56.524Z,5.03
2018-06-02T05:19:23.141Z,5.20
2018-06-02T05:21:49.790Z,5.93
2018-06-02T05:24:16.406Z,5.27
2018-06-02T05:26:43.034Z,4.63
2018-06-02T05:29:09.694Z,4.97
2018-06-02T05:31:36.383Z,4.77
2018-06-02T05:34:03.040Z,4.03
2018-06-02T05:36:29.698Z,4.90
2018-06-02T05:38:56.349Z,4.60
2018-06-02T05:41:23.065Z,5.00
2018-06-02T05:43:49.745Z,5.23
2018-06-02T05:46:16.406Z,4.20
2018-06-02T05:48:43.025Z,4.47
2018-06-02T05:51:09.660Z,5.07
2018-06-02T05:53:36.318Z,4.67
2018-06-02T05:56:02.938Z,4.10
2018-06-02T05:58:29.553Z,4.83
2018-06-02T06:00:56.206Z,5.07
2018-06-02T06:03:22.834Z,5.00
2018-06-02T06:05:49.484Z,4.80
2018-06-02T06:08:16.132Z,4.47
2018-06-02T06:10:42.768Z,4.77
2018-06-02T06:13:09.408Z,4.67
2018-06-02T06:15:36.064Z,5.50
2018-06-02T06:18:02.724Z,5.57
2018-06-02T06:20:29.379Z,4.80
2018-06-02T06:22:56.060Z,4.30
2018-06-02T06:25:22.754Z,4.50
2018-06-02T06:27:49.401Z,4.23
2018-06-02T06:30:16.057Z,4.43
2018-06-02T06:32:42.702Z,5.00
2018-06-02T06:35:09.366Z,5.30
2018-06-02T06:37:36.058Z,4.43
2018-06-02T06:40:02.703Z,4.80
2018-06-02T06:42:30.197Z,3.87
2018-06-02T06:44:56.834Z,4.23
2018-06-02T06:47:23.517Z,4.80
2018-06-02T06:49:50.125Z,3.97
2018-06-02T06:52:16.762Z,3.80
2018-06-02T06:54:43.406Z,3.57
2018-06-02T06:57:10.065Z,4.30
2018-06-02T06:59:36.692Z,4.20
2018-06-02T07:02:03.367Z,4.13
2018-06-02T07:04:30.022Z,3.90
2018-06-02T07:06:56.783Z,3.53
2018-06-02T07:09:23.470Z,3.50
2018-06-02T07:11:50.161Z,4.03
2018-06-02T07:14:16.884Z,4.00
2018-06-02T07:16:43.524Z,3.90
2018-06-02T07:19:11.142Z,3.23
2018-06-02T07:21:37.825Z,4.00
2018-06-02T07:24:04.483Z,3.73
2018-06-02T07:26:31.143Z,3.83
2018-06-02T07:28:58.370Z,3.20
2018-06-02T07:31:25.074Z,4.07
2018-06-02T07:33:51.737Z,3.50
2018-06-02T07:36:18.375Z,3.87
2018-06-02T07:38:45.026Z,3.47
2018-06-02T07:41:11.696Z,3.30
2018-06-02T07:43:39.083Z,3.30
2018-06-02T07:46:05.784Z,3.00
2018-06-02T07:48:32.559Z,3.20
2018-06-02T07:50:59.296Z,2.90
2018-06-02T07:53:26.145Z,3.03
2018-06-02T07:55:52.834Z,3.40
2018-06-02T07:58:19.580Z,2.90
2018-06-02T08:00:46.292Z,2.87
2018-06-02T08:03:12.917Z,3.20
2018-06-02T08:05:39.528Z,3.23
2018-06-02T08:08:06.181Z,3.50
2018-06-02T08:10:32.840Z,2.90
2018-06-02T08:12:59.471Z,3.07
2018-06-02T08:15:26.113Z,2.63
2018-06-02T08:17:52.746Z,2.90
2018-06-02T08:20:19.430Z,2.40
2018-06-02T08:22:46.054Z,2.40
2018-06-02T08:25:12.699Z,2.73
2018-06-02T08:27:39.355Z,3.40
2018-06-02T08:30:05.975Z,2.80
2018-06-02T08:32:32.663Z,2.83
2018-06-02T08:34:59.287Z,3.00
2018-06-02T08:37:26.616Z,3.50
2018-06-02T08:39:53.254Z,3.70
2018-06-02T08:42:19.915Z,4.00
2018-06-02T08:44:46.545Z,4.10
2018-06-02T08:47:13.198Z,3.47
2018-06-02T08:49:39.836Z,3.13
2018-06-02T08:52:07.352Z,2.63
2018-06-02T08:54:34.027Z,2.20
2018-06-02T08:57:00.706Z,2.77
2018-06-02T08:59:27.336Z,2.60
2018-06-02T09:01:54.001Z,2.87
2018-06-02T09:04:20.678Z,2.97
2018-06-02T09:06:47.344Z,2.87
2018-06-02T09:09:14.001Z,2.23
2018-06-02T09:11:40.676Z,2.97
2018-06-02T09:14:07.505Z,3.30
2018-06-02T09:16:34.133Z,3.47
2018-06-02T09:19:00.787Z,2.97
2018-06-02T09:21:27.416Z,3.17
2018-06-02T09:23:54.737Z,3.30
2018-06-02T09:26:21.384Z,3.10
2018-06-02T09:28:48.021Z,3.40
2018-06-02T09:31:14.641Z,3.20
2018-06-02T09:33:41.329Z,3.90
2018-06-02T09:36:08.003Z,3.07
2018-06-02T09:38:34.823Z,3.10
2018-06-02T09:41:01.485Z,3.33
2018-06-02T09:43:28.172Z,3.27
2018-06-02T09:45:55.807Z,2.83
2018-06-02T09:48:22.445Z,3.60
2018-06-02T09:50:49.964Z,2.93
2018-06-02T09:53:16.619Z,3.30
2018-06-02T09:55:43.243Z,3.23
2018-06-02T09:58:10.169Z,3.33
2018-06-02T10:00:36.815Z,3.40
2018-06-02T10:03:03.462Z,3.07
2018-06-02T10:05:30.075Z,3.10
2018-06-02T10:07:56.692Z,3.63
2018-06-02T10:10:23.356Z,3.07
2018-06-02T10:12:50.662Z,2.97
2018-06-02T10:15:17.312Z,3.03
2018-06-02T10:17:43.932Z,3.13
2018-06-02T10:20:10.853Z,3.20
2018-06-02T10:22:37.498Z,3.43
2018-06-02T10:25:04.113Z,3.53
2018-06-02T10:27:30.770Z,3.60
2018-06-02T10:29:57.390Z,3.47
2018-06-02T10:32:24.050Z,3.33
2018-06-02T10:34:50.677Z,3.70
2018-06-02T10:37:17.826Z,2.67
2018-06-02T10:39:44.480Z,2.93
2018-06-02T10:42:11.156Z,2.90
2018-06-02T10:44:37.797Z,3.13
2018-06-02T10:47:04.498Z,3.53
2018-06-02T10:49:31.482Z,3.23
2018-06-02T10:51:58.112Z,3.37
2018-06-02T10:54:24.772Z,3.30
2018-06-02T10:56:51.385Z,3.60
2018-06-02T10:59:18.011Z,2.93
2018-06-02T11:01:44.646Z,3.20
2018-06-02T11:04:11.284Z,3.10
2018-06-02T11:06:37.947Z,3.10
2018-06-02T11:09:05.383Z,3.73
2018-06-02T11:11:31.975Z,4.20
2018-06-02T11:13:58.646Z,3.60
2018-06-02T11:16:25.502Z,4.50
2018-06-02T11:18:52.123Z,4.20
2018-06-02T11:21:18.801Z,3.63
2018-06-02T11:23:45.443Z,3.90
2018-06-02T11:26:12.118Z,3.83
2018-06-02T11:28:38.734Z,4.10
2018-06-02T11:31:05.373Z,4.07
2018-06-02T11:33:32.051Z,3.70
2018-06-02T11:35:58.707Z,4.33
2018-06-02T11:38:25.374Z,4.07
2018-06-02T11:40:52.014Z,4.33
2018-06-02T11:43:18.830Z,4.50
2018-06-02T11:45:45.503Z,4.10
2018-06-02T11:48:12.771Z,3.83
2018-06-02T11:50:39.421Z,4.40
2018-06-02T11:53:07.061Z,4.53
2018-06-02T11:55:33.721Z,4.80
2018-06-02T11:58:00.360Z,4.70
2018-06-02T12:00:26.995Z,4.10
2018-06-02T12:02:53.661Z,3.77
2018-06-02T12:05:20.314Z,3.70
2018-06-02T12:07:47.204Z,3.90
2018-06-02T12:10:13.841Z,4.80
2018-06-02T12:12:40.476Z,4.20
2018-06-02T12:15:07.126Z,4.90
2018-06-02T12:17:33.757Z,4.23
2018-06-02T12:20:00.372Z,4.70
2018-06-02T12:22:27.031Z,4.53
2018-06-02T12:24:53.659Z,4.33
2018-06-02T12:27:20.792Z,4.50
2018-06-02T12:29:47.480Z,4.20
2018-06-02T12:32:14.199Z,4.23
2018-06-02T12:34:40.831Z,4.33
2018-06-02T12:37:07.479Z,5.50
2018-06-02T12:39:34.100Z,4.30
2018-06-02T12:42:00.769Z,4.37
2018-06-02T12:44:27.420Z,4.67
2018-06-02T12:46:54.072Z,4.53
2018-06-02T12:49:20.730Z,3.90
2018-06-02T12:51:47.380Z,4.50
2018-06-02T12:54:14.009Z,3.70
2018-06-02T12:56:40.675Z,3.27
2018-06-02T12:59:07.315Z,4.10
2018-06-02T13:01:33.951Z,4.10
2018-06-02T13:04:00.609Z,3.73
2018-06-02T13:06:27.241Z,3.77
2018-06-02T13:08:53.917Z,3.50
2018-06-02T13:11:20.604Z,3.40
2018-06-02T13:13:47.221Z,4.30
2018-06-02T13:16:13.873Z,3.57
2018-06-02T13:18:40.543Z,3.80
2018-06-02T13:21:07.217Z,3.70
2018-06-02T13:23:33.847Z,4.00
2018-06-02T13:26:00.495Z,3.80
2018-06-02T13:28:27.117Z,3.30
2018-06-02T13:30:53.770Z,3.03
2018-06-02T13:33:20.404Z,4.40
2018-06-02T13:35:47.042Z,3.90
2018-06-02T13:38:13.678Z,3.80
2018-06-02T13:40:40.355Z,3.77
2018-06-02T13:43:07.020Z,3.00
2018-06-02T13:45:33.648Z,2.80
2018-06-02T13:48:00.308Z,2.80
2018-06-02T13:50:26.968Z,2.00
2018-06-02T13:52:53.625Z,2.37
2018-06-02T13:55:20.238Z,3.37
2018-06-02T13:57:46.899Z,2.97
2018-06-02T14:00:13.529Z,3.20
2018-06-02T14:02:40.161Z,2.70
2018-06-02T14:05:06.836Z,2.97
2018-06-02T14:07:33.488Z,2.77
2018-06-02T14:10:00.151Z,3.10
2018-06-02T14:12:27.512Z,2.80
2018-06-02T14:14:54.144Z,2.60
2018-06-02T14:17:20.815Z,2.23
2018-06-02T14:19:47.426Z,2.17
2018-06-02T14:22:14.067Z,2.40
2018-06-02T14:24:40.725Z,2.20
2018-06-02T14:27:07.387Z,1.90
2018-06-02T14:29:34.044Z,2.50
2018-06-02T14:32:00.741Z,2.70
2018-06-02T14:34:28.200Z,1.90
2018-06-02T14:36:54.857Z,2.70
2018-06-02T14:39:21.504Z,2.30
2018-06-02T14:41:48.144Z,2.10
2018-06-02T14:44:14.777Z,2.10
2018-06-02T14:46:41.418Z,2.37
2018-06-02T14:49:08.056Z,2.10
2018-06-02T14:51:34.680Z,1.90
2018-06-02T14:54:01.348Z,2.20
2018-06-02T14:56:28.197Z,2.03
2018-06-02T14:58:54.841Z,2.00
2018-06-02T15:01:21.511Z,1.70
2018-06-02T15:03:48.152Z,2.33
2018-06-02T15:06:14.799Z,2.27
2018-06-02T15:08:41.790Z,1.97
2018-06-02T15:11:08.423Z,2.30
2018-06-02T15:13:35.078Z,2.10
2018-06-02T15:16:01.709Z,2.37
2018-06-02T15:18:28.395Z,2.00
2018-06-02T15:20:55.098Z,2.10
2018-06-02T15:23:21.767Z,2.50
2018-06-02T15:25:48.434Z,2.40
2018-06-02T15:28:15.057Z,2.20
2018-06-02T15:30:41.761Z,2.10
2018-06-02T15:33:09.152Z,2.33
2018-06-02T15:35:35.789Z,2.70
2018-06-02T15:38:02.443Z,1.90
2018-06-02T15:40:29.121Z,2.37
2018-06-02T15:42:55.848Z,2.10
2018-06-02T15:45:22.531Z,2.60
2018-06-02T15:47:49.184Z,2.67
2018-06-02T15:50:15.840Z,2.70
2018-06-02T15:52:42.511Z,2.67
2018-06-02T15:55:09.162Z,3.10
2018-06-02T15:57:35.783Z,2.40
2018-06-02T16:00:02.420Z,2.80
2018-06-02T16:02:29.054Z,2.50
2018-06-02T16:04:55.685Z,2.53
2018-06-02T16:07:22.331Z,2.70
2018-06-02T16:09:49.003Z,2.30
2018-06-02T16:12:15.629Z,2.20
2018-06-02T16:14:42.298Z,2.50
2018-06-02T16:17:08.912Z,2.20
2018-06-02T16:19:35.591Z,2.90
2018-06-02T16:22:02.295Z,2.70
2018-06-02T16:24:28.936Z,2.80
2018-06-02T16:26:55.607Z,3.13
2018-06-02T16:29:22.267Z,2.50
2018-06-02T16:31:48.905Z,3.10
2018-06-02T16:34:15.555Z,3.00
2018-06-02T16:36:42.277Z,2.77
2018-06-02T16:39:08.935Z,2.63
2018-06-02T16:41:35.556Z,3.13
2018-06-02T16:44:02.202Z,3.03
2018-06-02T16:46:28.836Z,2.77
2018-06-02T16:48:55.555Z,3.10
2018-06-02T16:51:22.206Z,3.27
2018-06-02T16:53:49.058Z,3.17
2018-06-02T16:56:15.697Z,3.30
2018-06-02T16:58:42.993Z,3.73
2018-06-02T17:01:09.655Z,3.20
2018-06-02T17:03:36.412Z,3.30
2018-06-02T17:06:03.071Z,3.63
2018-06-02T17:08:29.695Z,3.70
2018-06-02T17:10:56.640Z,3.50
2018-06-02T17:13:23.286Z,3.80
2018-06-02T17:15:49.945Z,3.60
2018-06-02T17:18:17.235Z,3.73
2018-06-02T17:20:43.871Z,4.10
2018-06-02T17:23:10.552Z,3.40
2018-06-02T17:25:37.700Z,4.10
2018-06-02T17:28:04.504Z,4.03
2018-06-02T17:30:31.138Z,3.80
2018-06-02T17:32:57.766Z,3.83
2018-06-02T17:35:24.431Z,4.10
2018-06-02T17:37:51.106Z,4.00
2018-06-02T17:40:17.749Z,3.70
2018-06-02T17:42:44.423Z,3.50
2018-06-02T17:45:11.047Z,3.90
2018-06-02T17:47:37.692Z,3.60
2018-06-02T17:50:04.401Z,4.07
2018-06-02T17:52:31.070Z,3.63
2018-06-02T17:54:57.746Z,4.30
2018-06-02T17:57:25.498Z,3.80
2018-06-02T17:59:52.147Z,4.33
2018-06-02T18:02:18.782Z,4.30
2018-06-02T18:04:45.451Z,3.80
2018-06-02T18:07:12.085Z,3.90
2018-06-02T18:09:38.697Z,4.20
2018-06-02T18:12:05.354Z,3.90
2018-06-02T18:14:32.029Z,3.40
2018-06-02T18:16:58.642Z,4.07
2018-06-02T18:19:25.261Z,3.53
2018-06-02T18:21:51.946Z,3.73
2018-06-02T18:24:18.595Z,3.90
2018-06-02T18:26:45.277Z,3.60
2018-06-02T18:29:11.947Z,3.90
2018-06-02T18:31:38.632Z,3.97
2018-06-02T18:34:05.258Z,3.10
2018-06-02T18:36:31.899Z,4.07
2018-06-02T18:38:58.546Z,3.60
2018-06-02T18:41:25.185Z,3.60
2018-06-02T18:43:51.834Z,3.50
2018-06-02T18:46:18.473Z,4.00
2018-06-02T18:48:45.160Z,3.90
2018-06-02T18:51:11.886Z,3.53
2018-06-02T18:53:38.532Z,3.37
2018-06-02T18:56:05.232Z,3.80
2018-06-02T18:58:31.915Z,3.83
2018-06-02T19:00:58.563Z,3.70
2018-06-02T19:03:25.194Z,3.30
2018-06-02T19:05:51.826Z,3.70
2018-06-02T19:08:18.579Z,4.07
2018-06-02T19:10:45.220Z,3.93
2018-06-02T19:13:11.851Z,3.90
2018-06-02T19:15:38.501Z,3.40
2018-06-02T19:18:05.157Z,3.70
2018-06-02T19:20:31.805Z,3.70
2018-06-02T19:22:58.473Z,3.60
2018-06-02T19:25:25.090Z,3.00
2018-06-02T19:27:51.764Z,3.20
2018-06-02T19:30:18.430Z,3.70
2018-06-02T19:32:45.193Z,3.60
2018-06-02T19:35:11.890Z,3.70
2018-06-02T19:37:38.534Z,3.40
2018-06-02T19:40:05.182Z,3.10
2018-06-02T19:42:31.855Z,3.40
2018-06-02T19:44:58.493Z,3.10
2018-06-02T19:47:25.192Z,3.63
2018-06-02T19:49:51.844Z,3.60
2018-06-02T19:52:18.497Z,3.87
2018-06-02T19:54:45.189Z,3.23
2018-06-02T19:57:11.839Z,3.70
2018-06-02T19:59:38.486Z,3.40
2018-06-02T20:02:05.130Z,3.83
2018-06-02T20:04:31.773Z,3.80
2018-06-02T20:06:58.685Z,3.90
2018-06-02T20:09:25.371Z,3.57
2018-06-02T20:11:52.021Z,3.43
2018-06-02T20:14:18.656Z,3.60
2018-06-02T20:16:45.298Z,3.40
2018-06-02T20:19:11.954Z,3.90
2018-06-02T20:21:38.592Z,3.73
2018-06-02T20:24:05.262Z,4.40
2018-06-02T20:26:31.900Z,3.83
2018-06-02T20:28:58.560Z,3.93
2018-06-02T20:31:25.234Z,3.53
2018-06-02T20:33:52.790Z,5.07
2018-06-02T20:36:19.432Z,4.70
2018-06-02T20:38:46.107Z,4.40
2018-06-02T20:41:12.734Z,4.83
2018-06-02T20:43:39.360Z,5.50
2018-06-02T20:46:06.012Z,5.20
2018-06-02T20:48:32.654Z,4.70
2018-06-02T20:50:59.326Z,4.43
2018-06-02T20:53:25.954Z,4.67
2018-06-02T20:55:52.993Z,4.97
2018-06-02T20:58:19.636Z,4.70
2018-06-02T21:00:46.307Z,4.90
2018-06-02T21:03:12.957Z,5.70
2018-06-02T21:05:39.612Z,5.67
2018-06-02T21:08:06.257Z,6.17
2018-06-02T21:10:32.910Z,5.93
2018-06-02T21:12:59.541Z,5.80
2018-06-02T21:15:26.198Z,6.13
2018-06-02T21:17:52.841Z,6.53
2018-06-02T21:20:19.463Z,6.97
2018-06-02T21:22:46.101Z,7.40
2018-06-02T21:25:12.776Z,6.53
2018-06-02T21:27:39.435Z,7.30
2018-06-02T21:30:06.082Z,6.50
2018-06-02T21:32:32.722Z,6.50
2018-06-02T21:34:59.692Z,6.87
2018-06-02T21:37:26.336Z,6.63
2018-06-02T21:39:52.983Z,6.10
2018-06-02T21:42:19.640Z,5.90
2018-06-02T21:44:46.350Z,7.23
2018-06-02T21:47:12.996Z,6.20
2018-06-02T21:49:39.622Z,6.70
2018-06-02T21:52:06.284Z,5.63
2018-06-02T21:54:32.920Z,5.20
2018-06-02T21:56:59.581Z,5.40
2018-06-02T21:59:26.229Z,6.63
2018-06-02T22:01:52.876Z,6.10
2018-06-02T22:04:19.499Z,5.40
2018-06-02T22:06:46.155Z,5.60
2018-06-02T22:09:12.801Z,6.40
2018-06-02T22:11:39.430Z,6.10
2018-06-02T22:14:06.093Z,5.93
2018-06-02T22:16:32.730Z,5.90
2018-06-02T22:18:59.381Z,5.93
2018-06-02T22:21:26.295Z,5.33
2018-06-02T22:23:52.933Z,5.40
2018-06-02T22:26:19.570Z,5.80
2018-06-02T22:28:46.233Z,5.00
2018-06-02T22:31:12.880Z,6.00
2018-06-02T22:33:39.517Z,5.70
2018-06-02T22:36:06.162Z,5.60
2018-06-02T22:38:32.809Z,5.97
2018-06-02T22:40:59.470Z,5.97
2018-06-02T22:43:26.084Z,6.30
2018-06-02T22:45:52.756Z,6.40
2018-06-02T22:48:19.406Z,6.43
2018-06-02T22:50:46.047Z,6.37
2018-06-02T22:53:13.676Z,6.20
2018-06-02T22:55:40.352Z,5.93
2018-06-02T22:58:07.306Z,7.87
2018-06-02T23:00:33.945Z,7.40
2018-06-02T23:03:00.602Z,8.17
2018-06-02T23:05:27.263Z,6.73
2018-06-02T23:07:54.261Z,7.37
2018-06-02T23:10:20.879Z,6.30
2018-06-02T23:12:47.518Z,7.00
2018-06-02T23:15:14.202Z,6.53
2018-06-02T23:17:40.833Z,7.13
2018-06-02T23:20:07.499Z,6.30
2018-06-02T23:22:39.063Z,6.27
2018-06-02T23:25:05.764Z,7.27
2018-06-02T23:27:32.404Z,7.07
2018-06-02T23:29:59.068Z,6.80
2018-06-02T23:32:25.698Z,7.37
2018-06-02T23:34:52.399Z,7.20
2018-06-02T23:37:19.065Z,8.33
2018-06-02T23:39:45.709Z,7.80
2018-06-02T23:42:12.401Z,9.00
2018-06-02T23:44:39.031Z,8.43
2018-06-02T23:47:05.710Z,8.70
2018-06-02T23:49:32.431Z,8.70
2018-06-02T23:51:59.058Z,8.90
2018-06-02T23:54:25.724Z,8.13
2018-06-02T23:56:52.409Z,7.93
2018-06-02T23:59:19.101Z,8.40
